sensor_id;sensor_type;location;lat;lon;timestamp;pressure;altitude;pressure_sealevel;temperature;humidity
27294;BME280;14785;52.556;13.430;2022-12-26T00:00:58;100273.66;;;11.47;100.00
27294;BME280;14785;52.556;13.430;2022-12-26T00:03:24;100278.31;;;11.45;100.00
27294;BME280;14785;52.556;13.430;2022-12-26T00:05:49;100280.66;;;11.40;100.00
27294;BME280;14785;52.556;13.430;2022-12-26T00:08:17;100276.00;;;11.34;100.00
27294;BME280;14785;52.556;13.430;2022-12-26T00:10:42;100285.97;;;11.48;100.00
27294;BME280;14785;52.556;13.430;2022-12-26T00:13:08;100275.31;;;11.48;100.00
27294;BME280;14785;52.556;13.430;2022-12-26T00:15:34;100275.31;;;11.40;100.00
27294;BME280;14785;52.556;13.430;2022-12-26T00:17:59;100277.97;;;11.48;100.00
27294;BME280;14785;52.556;13.430;2022-12-26T00:20:25;100278.94;;;11.55;100.00
27294;BME280;14785;52.556;13.430;2022-12-26T00:22:52;100269.00;;;11.41;100.00
27294;BME280;14785;52.556;13.430;2022-12-26T00:25:18;100273.34;;;11.34;100.00
27294;BME280;14785;52.556;13.430;2022-12-26T00:27:43;100261.16;;;11.48;100.00
27294;BME280;14785;52.556;13.430;2022-12-26T00:30:09;100242.72;;;11.38;100.00
27294;BME280;14785;52.556;13.430;2022-12-26T00:32:35;100240.06;;;11.38;100.00
27294;BME280;14785;52.556;13.430;2022-12-26T00:35:00;100253.44;;;11.22;100.00
27294;BME280;14785;52.556;13.430;2022-12-26T00:37:36;100257.41;;;11.26;100.00
27294;BME280;14785;52.556;13.430;2022-12-26T00:40:02;100254.53;;;11.44;100.00
27294;BME280;14785;52.556;13.430;2022-12-26T00:42:27;100261.38;;;11.30;100.00
27294;BME280;14785;52.556;13.430;2022-12-26T00:44:54;100261.09;;;11.25;100.00
27294;BME280;14785;52.556;13.430;2022-12-26T00:47:19;100247.09;;;11.23;100.00
27294;BME280;14785;52.556;13.430;2022-12-26T00:49:45;100246.75;;;11.26;100.00
27294;BME280;14785;52.556;13.430;2022-12-26T00:52:10;100242.28;;;11.11;100.00
27294;BME280;14785;52.556;13.430;2022-12-26T00:54:35;100243.25;;;11.26;100.00
27294;BME280;14785;52.556;13.430;2022-12-26T00:57:01;100240.13;;;11.22;100.00
27294;BME280;14785;52.556;13.430;2022-12-26T00:59:26;100245.72;;;11.35;100.00
27294;BME280;14785;52.556;13.430;2022-12-26T01:01:52;100227.38;;;11.40;100.00
27294;BME280;14785;52.556;13.430;2022-12-26T01:04:17;100240.38;;;11.43;100.00
27294;BME280;14785;52.556;13.430;2022-12-26T01:06:44;100218.78;;;11.30;100.00
27294;BME280;14785;52.556;13.430;2022-12-26T01:09:10;100219.78;;;11.29;100.00
27294;BME280;14785;52.556;13.430;2022-12-26T01:11:38;100202.97;;;11.37;100.00
27294;BME280;14785;52.556;13.430;2022-12-26T01:14:12;100200.75;;;11.40;100.00
27294;BME280;14785;52.556;13.430;2022-12-26T01:16:42;100208.38;;;11.51;100.00
27294;BME280;14785;52.556;13.430;2022-12-26T01:19:12;100213.38;;;11.54;100.00
27294;BME280;14785;52.556;13.430;2022-12-26T01:21:38;100212.75;;;11.44;100.00
27294;BME280;14785;52.556;13.430;2022-12-26T01:24:04;100203.75;;;11.45;100.00
27294;BME280;14785;52.556;13.430;2022-12-26T01:26:32;100194.75;;;11.46;100.00
27294;BME280;14785;52.556;13.430;2022-12-26T01:28:58;100204.19;;;11.57;100.00
27294;BME280;14785;52.556;13.430;2022-12-26T01:31:24;100211.38;;;11.56;100.00
27294;BME280;14785;52.556;13.430;2022-12-26T01:33:49;100203.41;;;11.48;100.00
27294;BME280;14785;52.556;13.430;2022-12-26T01:36:15;100207.69;;;11.66;100.00
27294;BME280;14785;52.556;13.430;2022-12-26T01:38:41;100203.66;;;11.61;100.00
27294;BME280;14785;52.556;13.430;2022-12-26T01:41:08;100194.72;;;11.63;100.00
27294;BME280;14785;52.556;13.430;2022-12-26T01:43:59;100184.44;;;11.43;100.00
27294;BME280;14785;52.556;13.430;2022-12-26T01:48:55;100197.69;;;11.68;100.00
27294;BME280;14785;52.556;13.430;2022-12-26T01:51:25;100190.34;;;11.70;100.00
27294;BME280;14785;52.556;13.430;2022-12-26T01:53:54;100180.66;;;11.77;100.00
27294;BME280;14785;52.556;13.430;2022-12-26T01:56:28;100183.38;;;11.60;100.00
27294;BME280;14785;52.556;13.430;2022-12-26T01:59:02;100182.34;;;11.61;100.00
27294;BME280;14785;52.556;13.430;2022-12-26T02:01:32;100173.41;;;11.63;100.00
27294;BME280;14785;52.556;13.430;2022-12-26T02:04:01;100173.41;;;11.63;100.00
27294;BME280;14785;52.556;13.430;2022-12-26T02:06:48;100185.19;;;11.60;100.00
27294;BME280;14785;52.556;13.430;2022-12-26T02:09:14;100173.72;;;11.59;100.00
27294;BME280;14785;52.556;13.430;2022-12-26T02:11:50;100168.91;;;11.63;100.00
27294;BME280;14785;52.556;13.430;2022-12-26T02:14:18;100191.00;;;11.72;100.00
27294;BME280;14785;52.556;13.430;2022-12-26T02:16:46;100183.03;;;11.72;100.00
27294;BME280;14785;52.556;13.430;2022-12-26T02:19:25;100189.41;;;11.63;100.00
27294;BME280;14785;52.556;13.430;2022-12-26T02:25:01;100172.41;;;11.55;100.00
27294;BME280;14785;52.556;13.430;2022-12-26T02:30:32;100181.66;;;11.76;100.00
27294;BME280;14785;52.556;13.430;2022-12-26T02:39:10;100170.59;;;11.87;100.00
27294;BME280;14785;52.556;13.430;2022-12-26T02:50:47;100165.28;;;11.87;100.00
27294;BME280;14785;52.556;13.430;2022-12-26T02:53:47;100155.91;;;11.91;100.00
27294;BME280;14785;52.556;13.430;2022-12-26T02:56:42;100171.56;;;11.63;100.00
27294;BME280;14785;52.556;13.430;2022-12-26T02:59:46;100180.44;;;11.86;100.00
27294;BME280;14785;52.556;13.430;2022-12-26T03:06:10;100178.16;;;11.75;100.00
27294;BME280;14785;52.556;13.430;2022-12-26T03:08:55;100174.97;;;11.80;100.00
27294;BME280;14785;52.556;13.430;2022-12-26T03:11:45;100167.38;;;11.69;100.00
27294;BME280;14785;52.556;13.430;2022-12-26T03:14:37;100177.00;;;11.78;100.00
27294;BME280;14785;52.556;13.430;2022-12-26T03:17:10;100187.06;;;11.90;100.00
27294;BME280;14785;52.556;13.430;2022-12-26T03:28:14;100158.28;;;11.86;100.00
27294;BME280;14785;52.556;13.430;2022-12-26T03:30:40;100168.28;;;11.84;100.00
27294;BME280;14785;52.556;13.430;2022-12-26T03:33:23;100178.88;;;11.92;100.00
27294;BME280;14785;52.556;13.430;2022-12-26T03:36:13;100173.34;;;11.71;100.00
27294;BME280;14785;52.556;13.430;2022-12-26T03:38:54;100170.59;;;11.87;100.00
27294;BME280;14785;52.556;13.430;2022-12-26T03:44:51;100172.97;;;11.82;100.00
27294;BME280;14785;52.556;13.430;2022-12-26T03:48:34;100167.50;;;11.98;100.00
27294;BME280;14785;52.556;13.430;2022-12-26T03:50:58;100158.09;;;11.87;100.00
27294;BME280;14785;52.556;13.430;2022-12-26T03:53:58;100164.44;;;11.86;100.00
27294;BME280;14785;52.556;13.430;2022-12-26T03:56:54;100171.25;;;11.89;100.00
27294;BME280;14785;52.556;13.430;2022-12-26T04:00:05;100166.88;;;11.96;100.00
27294;BME280;14785;52.556;13.430;2022-12-26T04:02:54;100179.59;;;11.86;100.00
27294;BME280;14785;52.556;13.430;2022-12-26T04:05:44;100181.72;;;11.90;100.00
27294;BME280;14785;52.556;13.430;2022-12-26T04:08:40;100164.69;;;11.99;100.00
27294;BME280;14785;52.556;13.430;2022-12-26T04:11:27;100186.00;;;11.99;100.00
27294;BME280;14785;52.556;13.430;2022-12-26T04:17:41;100202.09;;;11.83;100.00
27294;BME280;14785;52.556;13.430;2022-12-26T04:20:34;100192.28;;;11.84;100.00
27294;BME280;14785;52.556;13.430;2022-12-26T04:23:12;100189.47;;;12.08;100.00
27294;BME280;14785;52.556;13.430;2022-12-26T04:26:46;100195.94;;;11.83;100.00
27294;BME280;14785;52.556;13.430;2022-12-26T04:29:10;100190.97;;;12.02;100.00
27294;BME280;14785;52.556;13.430;2022-12-26T04:32:17;100190.41;;;12.15;100.00
27294;BME280;14785;52.556;13.430;2022-12-26T04:35:16;100197.00;;;11.96;100.00
27294;BME280;14785;52.556;13.430;2022-12-26T04:38:02;100179.25;;;12.34;100.00
27294;BME280;14785;52.556;13.430;2022-12-26T04:40:49;100178.72;;;12.16;100.00
27294;BME280;14785;52.556;13.430;2022-12-26T04:43:34;100194.63;;;12.09;100.00
27294;BME280;14785;52.556;13.430;2022-12-26T04:46:20;100195.72;;;12.15;100.00
27294;BME280;14785;52.556;13.430;2022-12-26T04:48:49;100205.38;;;12.16;100.00
27294;BME280;14785;52.556;13.430;2022-12-26T04:51:34;100201.03;;;11.92;100.00
27294;BME280;14785;52.556;13.430;2022-12-26T04:54:05;100208.66;;;12.03;100.00
27294;BME280;14785;52.556;13.430;2022-12-26T04:56:31;100199.06;;;12.17;100.00
27294;BME280;14785;52.556;13.430;2022-12-26T04:58:57;100204.75;;;12.14;100.00
27294;BME280;14785;52.556;13.430;2022-12-26T05:01:22;100198.00;;;12.26;100.00
27294;BME280;14785;52.556;13.430;2022-12-26T05:04:12;100196.44;;;12.09;100.00
27294;BME280;14785;52.556;13.430;2022-12-26T05:06:58;100208.31;;;12.29;100.00
27294;BME280;14785;52.556;13.430;2022-12-26T05:09:44;100214.28;;;11.78;100.00
27294;BME280;14785;52.556;13.430;2022-12-26T05:12:09;100203.88;;;11.91;100.00
27294;BME280;14785;52.556;13.430;2022-12-26T05:14:35;100202.47;;;12.03;100.00
27294;BME280;14785;52.556;13.430;2022-12-26T05:17:02;100216.56;;;12.11;100.00
27294;BME280;14785;52.556;13.430;2022-12-26T05:19:46;100225.06;;;12.15;100.00
27294;BME280;14785;52.556;13.430;2022-12-26T05:22:38;100215.75;;;12.11;100.00
27294;BME280;14785;52.556;13.430;2022-12-26T05:25:26;100226.44;;;12.11;100.00
27294;BME280;14785;52.556;13.430;2022-12-26T05:28:12;100236.75;;;12.14;100.00
27294;BME280;14785;52.556;13.430;2022-12-26T05:30:58;100229.28;;;12.09;100.00
27294;BME280;14785;52.556;13.430;2022-12-26T05:33:23;100228.84;;;12.20;100.00
27294;BME280;14785;52.556;13.430;2022-12-26T05:36:08;100229.00;;;11.96;100.00
27294;BME280;14785;52.556;13.430;2022-12-26T05:38:36;100227.22;;;12.11;100.00
27294;BME280;14785;52.556;13.430;2022-12-26T05:41:02;100238.50;;;11.99;100.00
27294;BME280;14785;52.556;13.430;2022-12-26T05:43:27;100231.28;;;12.30;100.00
27294;BME280;14785;52.556;13.430;2022-12-26T05:45:56;100229.72;;;12.13;100.00
27294;BME280;14785;52.556;13.430;2022-12-26T05:48:22;100230.28;;;11.78;100.00
27294;BME280;14785;52.556;13.430;2022-12-26T05:50:50;100236.22;;;11.88;100.00
27294;BME280;14785;52.556;13.430;2022-12-26T05:53:16;100245.56;;;11.84;100.00
27294;BME280;14785;52.556;13.430;2022-12-26T05:55:41;100235.88;;;11.91;100.00
27294;BME280;14785;52.556;13.430;2022-12-26T05:58:07;100234.91;;;11.84;100.00
27294;BME280;14785;52.556;13.430;2022-12-26T06:00:32;100246.72;;;11.81;100.00
27294;BME280;14785;52.556;13.430;2022-12-26T06:02:59;100247.91;;;11.79;100.00
27294;BME280;14785;52.556;13.430;2022-12-26T06:05:25;100239.63;;;12.04;100.00
27294;BME280;14785;52.556;13.430;2022-12-26T06:07:50;100243.19;;;11.89;100.00
27294;BME280;14785;52.556;13.430;2022-12-26T06:10:16;100241.63;;;11.72;100.00
27294;BME280;14785;52.556;13.430;2022-12-26T06:12:42;100240.25;;;11.84;100.00
27294;BME280;14785;52.556;13.430;2022-12-26T06:15:07;100237.25;;;11.79;100.00
27294;BME280;14785;52.556;13.430;2022-12-26T06:17:33;100261.59;;;11.76;100.00
27294;BME280;14785;52.556;13.430;2022-12-26T06:19:59;100256.94;;;11.78;100.00
27294;BME280;14785;52.556;13.430;2022-12-26T06:22:24;100266.59;;;11.71;100.00
27294;BME280;14785;52.556;13.430;2022-12-26T06:24:50;100246.25;;;11.78;100.00
27294;BME280;14785;52.556;13.430;2022-12-26T06:27:15;100242.94;;;11.76;100.00
27294;BME280;14785;52.556;13.430;2022-12-26T06:29:40;100236.25;;;11.80;100.00
27294;BME280;14785;52.556;13.430;2022-12-26T06:32:06;100244.53;;;11.93;100.00
27294;BME280;14785;52.556;13.430;2022-12-26T06:34:32;100238.91;;;11.80;100.00
27294;BME280;14785;52.556;13.430;2022-12-26T06:36:58;100237.59;;;11.76;100.00
27294;BME280;14785;52.556;13.430;2022-12-26T06:39:23;100240.66;;;11.95;100.00
27294;BME280;14785;52.556;13.430;2022-12-26T06:41:51;100252.56;;;11.85;100.00
27294;BME280;14785;52.556;13.430;2022-12-26T06:44:17;100266.25;;;12.12;100.00
27294;BME280;14785;52.556;13.430;2022-12-26T06:46:43;100275.16;;;11.89;100.00
27294;BME280;14785;52.556;13.430;2022-12-26T06:49:08;100272.78;;;12.02;100.00
27294;BME280;14785;52.556;13.430;2022-12-26T06:51:34;100279.09;;;12.01;100.00
27294;BME280;14785;52.556;13.430;2022-12-26T06:54:02;100278.81;;;11.96;100.00
27294;BME280;14785;52.556;13.430;2022-12-26T06:56:31;100294.56;;;11.75;100.00
27294;BME280;14785;52.556;13.430;2022-12-26T06:58:59;100294.56;;;11.75;100.00
27294;BME280;14785;52.556;13.430;2022-12-26T07:01:25;100309.78;;;11.97;100.00
27294;BME280;14785;52.556;13.430;2022-12-26T07:03:53;100301.88;;;11.81;100.00
27294;BME280;14785;52.556;13.430;2022-12-26T07:08:45;100296.22;;;11.76;100.00
27294;BME280;14785;52.556;13.430;2022-12-26T07:11:18;100309.38;;;11.77;100.00
27294;BME280;14785;52.556;13.430;2022-12-26T07:13:45;100306.47;;;11.95;100.00
27294;BME280;14785;52.556;13.430;2022-12-26T07:16:10;100297.81;;;11.93;100.00
27294;BME280;14785;52.556;13.430;2022-12-26T07:18:36;100310.16;;;11.86;100.00
27294;BME280;14785;52.556;13.430;2022-12-26T07:21:06;100294.75;;;12.04;100.00
27294;BME280;14785;52.556;13.430;2022-12-26T07:23:32;100302.06;;;12.10;100.00
27294;BME280;14785;52.556;13.430;2022-12-26T07:25:58;100304.81;;;11.94;100.00
27294;BME280;14785;52.556;13.430;2022-12-26T07:28:24;100312.38;;;12.66;100.00
27294;BME280;14785;52.556;13.430;2022-12-26T07:30:50;100303.28;;;12.97;100.00
27294;BME280;14785;52.556;13.430;2022-12-26T07:33:16;100297.44;;;12.57;100.00
27294;BME280;14785;52.556;13.430;2022-12-26T07:35:41;100300.69;;;12.67;100.00
27294;BME280;14785;52.556;13.430;2022-12-26T07:38:07;100295.03;;;13.07;100.00
27294;BME280;14785;52.556;13.430;2022-12-26T07:40:33;100296.94;;;12.76;100.00
27294;BME280;14785;52.556;13.430;2022-12-26T07:42:58;100287.16;;;12.91;100.00
27294;BME280;14785;52.556;13.430;2022-12-26T07:45:24;100292.69;;;12.44;100.00
27294;BME280;14785;52.556;13.430;2022-12-26T07:47:56;100292.09;;;12.34;100.00
27294;BME280;14785;52.556;13.430;2022-12-26T07:50:23;100286.06;;;12.63;100.00
27294;BME280;14785;52.556;13.430;2022-12-26T07:52:50;100291.75;;;12.60;100.00
27294;BME280;14785;52.556;13.430;2022-12-26T07:55:15;100298.44;;;12.03;100.00
27294;BME280;14785;52.556;13.430;2022-12-26T07:57:41;100317.00;;;11.88;100.00
27294;BME280;14785;52.556;13.430;2022-12-26T08:00:07;100328.88;;;11.78;100.00
27294;BME280;14785;52.556;13.430;2022-12-26T08:02:33;100327.66;;;12.19;100.00
27294;BME280;14785;52.556;13.430;2022-12-26T08:04:59;100336.84;;;11.78;100.00
27294;BME280;14785;52.556;13.430;2022-12-26T08:07:24;100333.84;;;12.19;100.00
27294;BME280;14785;52.556;13.430;2022-12-26T08:09:50;100336.78;;;12.55;100.00
27294;BME280;14785;52.556;13.430;2022-12-26T08:12:15;100320.38;;;12.13;100.00
27294;BME280;14785;52.556;13.430;2022-12-26T08:14:41;100319.66;;;12.19;100.00
27294;BME280;14785;52.556;13.430;2022-12-26T08:17:09;100319.81;;;12.25;100.00
27294;BME280;14785;52.556;13.430;2022-12-26T08:19:34;100317.69;;;12.13;100.00
27294;BME280;14785;52.556;13.430;2022-12-26T08:22:00;100319.19;;;12.46;100.00
27294;BME280;14785;52.556;13.430;2022-12-26T08:24:27;100317.88;;;12.42;100.00
27294;BME280;14785;52.556;13.430;2022-12-26T08:26:52;100317.06;;;12.11;100.00
27294;BME280;14785;52.556;13.430;2022-12-26T08:29:17;100318.72;;;12.12;100.00
27294;BME280;14785;52.556;13.430;2022-12-26T08:31:44;100341.09;;;12.03;100.00
27294;BME280;14785;52.556;13.430;2022-12-26T08:34:10;100341.44;;;12.00;100.00
27294;BME280;14785;52.556;13.430;2022-12-26T08:36:38;100351.13;;;11.93;100.00
27294;BME280;14785;52.556;13.430;2022-12-26T08:39:04;100347.78;;;11.91;100.00
27294;BME280;14785;52.556;13.430;2022-12-26T08:41:30;100334.31;;;12.53;100.00
27294;BME280;14785;52.556;13.430;2022-12-26T08:43:55;100333.47;;;12.98;100.00
27294;BME280;14785;52.556;13.430;2022-12-26T08:46:22;100330.38;;;13.31;100.00
27294;BME280;14785;52.556;13.430;2022-12-26T08:48:47;100318.31;;;12.76;100.00
27294;BME280;14785;52.556;13.430;2022-12-26T08:51:18;100328.47;;;12.50;100.00
27294;BME280;14785;52.556;13.430;2022-12-26T08:53:47;100320.75;;;12.32;100.00
27294;BME280;14785;52.556;13.430;2022-12-26T08:56:20;100329.56;;;12.10;100.00
27294;BME280;14785;52.556;13.430;2022-12-26T08:58:46;100325.59;;;11.98;100.00
27294;BME280;14785;52.556;13.430;2022-12-26T09:01:18;100332.16;;;11.88;100.00
27294;BME280;14785;52.556;13.430;2022-12-26T09:03:43;100331.19;;;11.81;100.00
27294;BME280;14785;52.556;13.430;2022-12-26T09:06:11;100338.44;;;11.95;100.00
27294;BME280;14785;52.556;13.430;2022-12-26T09:08:37;100357.00;;;11.80;100.00
27294;BME280;14785;52.556;13.430;2022-12-26T09:11:09;100362.81;;;11.84;100.00
27294;BME280;14785;52.556;13.430;2022-12-26T09:13:35;100367.13;;;11.93;100.00
27294;BME280;14785;52.556;13.430;2022-12-26T09:16:16;100378.66;;;11.69;100.00
27294;BME280;14785;52.556;13.430;2022-12-26T09:18:44;100377.78;;;11.85;100.00
27294;BME280;14785;52.556;13.430;2022-12-26T09:21:11;100402.16;;;11.66;100.00
27294;BME280;14785;52.556;13.430;2022-12-26T09:23:41;100387.50;;;11.78;100.00
27294;BME280;14785;52.556;13.430;2022-12-26T09:26:17;100393.31;;;11.73;100.00
27294;BME280;14785;52.556;13.430;2022-12-26T09:28:44;100393.38;;;12.12;100.00
27294;BME280;14785;52.556;13.430;2022-12-26T09:31:17;100387.19;;;12.11;100.00
27294;BME280;14785;52.556;13.430;2022-12-26T09:33:44;100396.44;;;11.85;100.00
27294;BME280;14785;52.556;13.430;2022-12-26T09:36:14;100389.13;;;11.87;100.00
27294;BME280;14785;52.556;13.430;2022-12-26T09:38:41;100389.81;;;11.81;100.00
27294;BME280;14785;52.556;13.430;2022-12-26T09:43:46;100388.00;;;11.73;100.00
27294;BME280;14785;52.556;13.430;2022-12-26T09:46:21;100373.31;;;11.77;100.00
27294;BME280;14785;52.556;13.430;2022-12-26T09:49:15;100378.16;;;11.74;100.00
27294;BME280;14785;52.556;13.430;2022-12-26T09:51:46;100372.13;;;11.80;100.00
27294;BME280;14785;52.556;13.430;2022-12-26T09:56:54;100372.13;;;11.80;100.00
27294;BME280;14785;52.556;13.430;2022-12-26T09:59:23;100380.19;;;11.72;100.00
27294;BME280;14785;52.556;13.430;2022-12-26T10:01:50;100381.47;;;11.76;100.00
27294;BME280;14785;52.556;13.430;2022-12-26T10:04:26;100384.13;;;11.84;100.00
27294;BME280;14785;52.556;13.430;2022-12-26T10:12:35;100372.34;;;11.70;100.00
27294;BME280;14785;52.556;13.430;2022-12-26T10:15:10;100385.09;;;11.91;100.00
27294;BME280;14785;52.556;13.430;2022-12-26T10:23:34;100381.94;;;11.95;100.00
27294;BME280;14785;52.556;13.430;2022-12-26T10:31:49;100390.72;;;12.04;100.00
27294;BME280;14785;52.556;13.430;2022-12-26T10:34:36;100383.13;;;11.93;100.00
27294;BME280;14785;52.556;13.430;2022-12-26T10:39:59;100387.78;;;11.91;100.00
27294;BME280;14785;52.556;13.430;2022-12-26T10:44:58;100381.66;;;11.82;100.00
27294;BME280;14785;52.556;13.430;2022-12-26T10:47:25;100385.13;;;11.58;100.00
27294;BME280;14785;52.556;13.430;2022-12-26T10:49:51;100387.84;;;11.50;100.00
27294;BME280;14785;52.556;13.430;2022-12-26T10:52:21;100359.16;;;11.85;100.00
27294;BME280;14785;52.556;13.430;2022-12-26T10:54:52;100383.13;;;11.93;100.00
27294;BME280;14785;52.556;13.430;2022-12-26T10:57:21;100392.16;;;11.76;100.00
27294;BME280;14785;52.556;13.430;2022-12-26T10:59:49;100389.13;;;11.87;100.00
27294;BME280;14785;52.556;13.430;2022-12-26T11:02:29;100403.81;;;11.67;100.00
27294;BME280;14785;52.556;13.430;2022-12-26T11:05:06;100378.19;;;11.66;100.00
27294;BME280;14785;52.556;13.430;2022-12-26T11:07:35;100378.53;;;11.63;100.00
27294;BME280;14785;52.556;13.430;2022-12-26T11:10:02;100386.66;;;11.61;100.00
27294;BME280;14785;52.556;13.430;2022-12-26T11:12:40;100390.13;;;11.61;100.00
27294;BME280;14785;52.556;13.430;2022-12-26T11:23:46;100388.16;;;11.39;100.00
27294;BME280;14785;52.556;13.430;2022-12-26T11:26:20;100376.84;;;11.53;100.00
27294;BME280;14785;52.556;13.430;2022-12-26T11:31:35;100381.84;;;11.40;100.00
27294;BME280;14785;52.556;13.430;2022-12-26T11:34:06;100368.69;;;11.55;100.00
27294;BME280;14785;52.556;13.430;2022-12-26T11:36:34;100369.53;;;11.39;100.00
27294;BME280;14785;52.556;13.430;2022-12-26T11:39:21;100350.22;;;11.37;100.00
27294;BME280;14785;52.556;13.430;2022-12-26T11:41:49;100363.53;;;11.37;100.00
27294;BME280;14785;52.556;13.430;2022-12-26T11:44:22;100373.00;;;11.48;100.00
27294;BME280;14785;52.556;13.430;2022-12-26T11:47:11;100371.84;;;11.34;100.00
27294;BME280;14785;52.556;13.430;2022-12-26T11:50:00;100370.34;;;11.56;100.00
27294;BME280;14785;52.556;13.430;2022-12-26T11:55:34;100384.00;;;11.45;100.00
27294;BME280;14785;52.556;13.430;2022-12-26T12:01:03;100382.19;;;11.37;100.00
27294;BME280;14785;52.556;13.430;2022-12-26T12:03:34;100380.53;;;11.36;100.00
27294;BME280;14785;52.556;13.430;2022-12-26T12:09:11;100396.31;;;11.54;100.00
27294;BME280;14785;52.556;13.430;2022-12-26T12:14:36;100389.66;;;11.50;100.00
27294;BME280;14785;52.556;13.430;2022-12-26T12:17:26;100387.16;;;11.40;100.00
27294;BME280;14785;52.556;13.430;2022-12-26T12:20:20;100407.78;;;11.46;100.00
27294;BME280;14785;52.556;13.430;2022-12-26T12:28:43;100363.66;;;11.60;100.00
27294;BME280;14785;52.556;13.430;2022-12-26T12:47:49;100349.50;;;11.76;100.00
27294;BME280;14785;52.556;13.430;2022-12-26T12:51:00;100341.53;;;11.68;100.00
27294;BME280;14785;52.556;13.430;2022-12-26T13:01:35;100343.88;;;11.54;100.00
27294;BME280;14785;52.556;13.430;2022-12-26T13:04:16;100366.88;;;11.47;100.00
27294;BME280;14785;52.556;13.430;2022-12-26T13:06:50;100356.81;;;11.82;100.00
27294;BME280;14785;52.556;13.430;2022-12-26T13:09:21;100353.75;;;12.01;100.00
27294;BME280;14785;52.556;13.430;2022-12-26T13:11:52;100353.75;;;12.01;100.00
27294;BME280;14785;52.556;13.430;2022-12-26T13:14:21;100343.34;;;11.75;100.00
27294;BME280;14785;52.556;13.430;2022-12-26T13:17:19;100340.31;;;11.86;100.00
27294;BME280;14785;52.556;13.430;2022-12-26T13:22:29;100336.94;;;12.00;100.00
27294;BME280;14785;52.556;13.430;2022-12-26T13:25:17;100343.84;;;12.17;100.00
27294;BME280;14785;52.556;13.430;2022-12-26T13:27:44;100350.38;;;12.07;100.00
27294;BME280;14785;52.556;13.430;2022-12-26T13:30:12;100356.47;;;11.93;100.00
27294;BME280;14785;52.556;13.430;2022-12-26T13:32:39;100349.50;;;11.76;100.00
27294;BME280;14785;52.556;13.430;2022-12-26T13:35:05;100348.19;;;11.72;100.00
27294;BME280;14785;52.556;13.430;2022-12-26T13:40:05;100353.28;;;11.97;100.00
27294;BME280;14785;52.556;13.430;2022-12-26T13:42:44;100349.16;;;11.87;100.00
27294;BME280;14785;52.556;13.430;2022-12-26T13:50:56;100346.88;;;11.59;100.00
27294;BME280;14785;52.556;13.430;2022-12-26T13:53:37;100356.50;;;11.60;100.00
27294;BME280;14785;52.556;13.430;2022-12-26T14:00:00;100352.53;;;11.65;100.00
27294;BME280;14785;52.556;13.430;2022-12-26T14:03:03;100367.47;;;11.90;100.00
27294;BME280;14785;52.556;13.430;2022-12-26T14:05:13;100376.97;;;11.60;100.00
27294;BME280;14785;52.556;13.430;2022-12-26T14:08:11;100367.84;;;11.71;100.00
27294;BME280;14785;52.556;13.430;2022-12-26T14:14:11;100371.50;;;11.78;100.00
27294;BME280;14785;52.556;13.430;2022-12-26T14:19:41;100366.09;;;12.02;100.00
27294;BME280;14785;52.556;13.430;2022-12-26T14:35:59;100395.50;;;11.45;100.00
27294;BME280;14785;52.556;13.430;2022-12-26T14:39:14;100387.84;;;11.34;100.00
27294;BME280;14785;52.556;13.430;2022-12-26T14:42:09;100390.00;;;11.47;100.00
27294;BME280;14785;52.556;13.430;2022-12-26T14:44:58;100391.84;;;11.30;100.00
27294;BME280;14785;52.556;13.430;2022-12-26T14:47:43;100379.69;;;11.36;100.00
27294;BME280;14785;52.556;13.430;2022-12-26T14:53:29;100378.66;;;11.45;100.00
27294;BME280;14785;52.556;13.430;2022-12-26T14:58:52;100379.84;;;11.75;100.00
27294;BME280;14785;52.556;13.430;2022-12-26T15:04:19;100375.66;;;11.56;100.00
27294;BME280;14785;52.556;13.430;2022-12-26T15:07:06;100373.16;;;11.54;100.00
27294;BME280;14785;52.556;13.430;2022-12-26T15:29:10;100360.16;;;11.84;100.00
27294;BME280;14785;52.556;13.430;2022-12-26T15:50:21;100353.81;;;11.85;100.00
27294;BME280;14785;52.556;13.430;2022-12-26T15:56:02;100352.25;;;11.35;100.00
27294;BME280;14785;52.556;13.430;2022-12-26T16:01:36;100355.00;;;11.74;100.00
27294;BME280;14785;52.556;13.430;2022-12-26T16:04:31;100356.16;;;11.80;100.00
27294;BME280;14785;52.556;13.430;2022-12-26T16:07:13;100360.53;;;11.48;100.00
27294;BME280;14785;52.556;13.430;2022-12-26T16:09:45;100365.31;;;11.77;100.00
27294;BME280;14785;52.556;13.430;2022-12-26T16:12:21;100362.84;;;11.59;100.00
27294;BME280;14785;52.556;13.430;2022-12-26T16:14:47;100372.84;;;11.57;100.00
27294;BME280;14785;52.556;13.430;2022-12-26T16:19:40;100384.84;;;11.45;100.00
27294;BME280;14785;52.556;13.430;2022-12-26T16:22:13;100379.50;;;11.70;100.00
27294;BME280;14785;52.556;13.430;2022-12-26T16:24:59;100388.19;;;11.15;100.00
27294;BME280;14785;52.556;13.430;2022-12-26T16:27:25;100385.84;;;11.12;100.00
27294;BME280;14785;52.556;13.430;2022-12-26T16:29:54;100400.50;;;11.32;100.00
27294;BME280;14785;52.556;13.430;2022-12-26T16:32:30;100392.81;;;11.37;100.00
27294;BME280;14785;52.556;13.430;2022-12-26T16:34:59;100382.19;;;11.37;100.00
27294;BME280;14785;52.556;13.430;2022-12-26T16:37:25;100388.47;;;11.52;100.00